Sao Domingos do Prata, Brazil
Current Conditions -  °F | °C
As of 1:00 PM on Saturday 22 Nov 2014 (Local Time) from SBLS Reporting Station
Broken Clouds Broken Clouds  
Wind Chill: 82°   Ceiling: 10000
Heat Index: 83°   Visibility: 6mi
Dew Point: 61°   Wind: 5mph
Humidity: 48%   Direction: 30°NNE
Pressure: 30.03"   Gusts: NA
Location:  19.87°S, 42.97°W
Report Text: SBLS 221500Z 03004KT 9999 SCT025 BKN100 28/16 Q1017
Loading
Personal Weather Stations






























Interactive Weather Map New forecast layout! Learn more

10-Day Weather Forecast

Advertisements
Track Severe Weather on mobile